Time;durP1;ratioP1;P1;durP2;ratioP2;P2;SDS_P1;SDS_P2;PMS_P1;PMS_P2;Temp;Humidity;BMP_temperature;BMP_pressure;BME280_temperature;BME280_humidity;BME280_pressure;Samples;Min_cycle;Max_cycle;Signal;HPM_P1;HPM_P2
2021/01/11 00:01:27;;;;;;;16.98;10.00;;;2.70;99.90;;;;;;5073278;28;20192;-68
2021/01/11 00:03:52;;;;;;;19.52;10.82;;;2.70;99.90;;;;;;5073287;28;20176;-68
2021/01/11 00:06:18;;;;;;;19.53;9.57;;;2.80;99.90;;;;;;5072972;28;20263;-68
2021/01/11 00:08:45;;;;;;;18.60;9.60;;;2.80;99.90;;;;;;5072931;28;20533;-68
2021/01/11 00:11:21;;;;;;;17.05;10.57;;;2.70;99.90;;;;;;5073232;28;20176;-68
2021/01/11 00:13:46;;;;;;;11.85;8.23;;;2.60;99.90;;;;;;5073659;28;20184;-68
2021/01/11 00:16:12;;;;;;;13.87;9.07;;;2.80;99.90;;;;;;5073133;28;20211;-68
2021/01/11 00:18:39;;;;;;;15.67;8.67;;;2.90;99.90;;;;;;5072897;28;20285;-68
2021/01/11 00:21:05;;;;;;;17.70;8.90;;;2.50;99.90;;;;;;5073056;28;20200;-67
2021/01/11 00:23:31;;;;;;;15.45;8.55;;;2.60;99.90;;;;;;5072820;28;20161;-68
2021/01/11 00:25:57;;;;;;;13.03;9.37;;;2.40;99.90;;;;;;5072810;28;20192;-68
2021/01/11 00:28:22;;;;;;;14.33;9.07;;;2.30;99.90;;;;;;5073347;28;20164;-68
2021/01/11 00:30:48;;;;;;;19.37;10.50;;;2.60;99.90;;;;;;5073886;28;20203;-68
2021/01/11 00:33:13;;;;;;;17.20;9.70;;;2.70;99.90;;;;;;5072829;28;20586;-68
2021/01/11 00:35:39;;;;;;;14.70;9.00;;;2.50;99.90;;;;;;5072824;28;20183;-68
2021/01/11 00:38:04;;;;;;;15.50;10.33;;;2.60;99.90;;;;;;5072686;28;20176;-68
2021/01/11 00:40:30;;;;;;;19.63;10.60;;;2.60;99.90;;;;;;5072551;28;20345;-69
2021/01/11 00:42:55;;;;;;;16.03;9.60;;;2.60;99.90;;;;;;5072618;28;20219;-69
2021/01/11 00:45:21;;;;;;;13.40;8.70;;;2.70;99.90;;;;;;5072597;28;20168;-69
2021/01/11 00:47:46;;;;;;;16.57;10.77;;;2.70;99.90;;;;;;5072506;28;20164;-68
2021/01/11 00:50:12;;;;;;;16.93;9.00;;;2.60;99.90;;;;;;5072565;28;20192;-68
2021/01/11 00:52:38;;;;;;;14.85;8.90;;;2.50;99.90;;;;;;5072791;28;20180;-69
2021/01/11 00:55:06;;;;;;;16.10;10.80;;;2.60;99.90;;;;;;5072523;28;20772;-69
2021/01/11 00:57:32;;;;;;;15.63;10.00;;;2.70;99.90;;;;;;5073507;28;20405;-68
2021/01/11 00:59:58;;;;;;;24.43;12.90;;;2.80;99.90;;;;;;5076552;28;20544;-68
2021/01/11 01:02:24;;;;;;;18.58;9.48;;;2.70;99.90;;;;;;5076811;28;20164;-68
2021/01/11 01:04:49;;;;;;;16.47;9.53;;;2.70;99.90;;;;;;5076443;28;20171;-68
2021/01/11 01:07:15;;;;;;;15.07;9.13;;;2.60;99.90;;;;;;5076424;28;20688;-68
2021/01/11 01:09:40;;;;;;;15.40;9.13;;;2.70;99.90;;;;;;5076313;28;20212;-68
2021/01/11 01:12:06;;;;;;;15.37;8.57;;;2.50;99.90;;;;;;5076681;28;20633;-68
2021/01/11 01:14:32;;;;;;;13.97;8.50;;;2.40;99.90;;;;;;5076626;28;20179;-68
2021/01/11 01:16:57;;;;;;;13.30;7.40;;;2.50;99.90;;;;;;5076357;28;20384;-69
2021/01/11 01:19:23;;;;;;;13.13;7.33;;;2.60;99.90;;;;;;5076432;28;20191;-68
2021/01/11 01:21:48;;;;;;;17.20;8.93;;;2.60;99.90;;;;;;5076126;28;20561;-68
2021/01/11 01:24:14;;;;;;;15.80;8.90;;;2.60;99.90;;;;;;5076228;28;20180;-68
2021/01/11 01:26:39;;;;;;;13.30;9.30;;;2.50;99.90;;;;;;5076246;28;20644;-68
2021/01/11 01:29:05;;;;;;;15.00;8.50;;;2.50;99.90;;;;;;5076210;28;20514;-68
2021/01/11 01:31:31;;;;;;;11.73;7.87;;;2.50;99.90;;;;;;5075884;28;20176;-68
2021/01/11 01:33:56;;;;;;;11.87;7.80;;;2.50;99.90;;;;;;5076231;28;20200;-68
2021/01/11 01:36:22;;;;;;;13.00;7.40;;;2.50;99.90;;;;;;5076328;28;20705;-68
2021/01/11 01:38:47;;;;;;;10.83;6.60;;;2.70;99.90;;;;;;5075949;28;20583;-68
2021/01/11 01:41:13;;;;;;;12.83;7.60;;;2.60;87.70;;;;;;5076413;28;20226;-68
2021/01/11 01:43:39;;;;;;;12.67;7.37;;;2.50;59.90;;;;;;5075791;28;20536;-68
2021/01/11 01:46:05;;;;;;;12.10;6.97;;;2.30;99.90;;;;;;5075651;28;20591;-69
2021/01/11 01:48:31;;;;;;;10.85;6.95;;;2.50;99.90;;;;;;5075583;28;20207;-68
2021/01/11 01:50:57;;;;;;;14.43;7.50;;;2.60;93.50;;;;;;5075414;28;20258;-68
2021/01/11 01:53:23;;;;;;;11.45;7.20;;;2.40;57.20;;;;;;5075505;28;20421;-68
2021/01/11 01:55:49;;;;;;;14.17;7.90;;;2.30;99.90;;;;;;5075683;28;20168;-68
2021/01/11 01:58:17;;;;;;;14.02;7.40;;;2.40;99.90;;;;;;5075429;28;20168;-69
2021/01/11 02:00:42;;;;;;;9.50;7.10;;;2.30;84.30;;;;;;5075228;28;20218;-68
2021/01/11 02:03:08;;;;;;;12.83;7.20;;;2.40;75.20;;;;;;5075380;28;20247;-68
2021/01/11 02:05:33;;;;;;;10.20;6.40;;;2.30;91.00;;;;;;5075317;28;20164;-68
2021/01/11 02:07:59;;;;;;;11.90;5.97;;;2.50;57.70;;;;;;5075534;28;20172;-68
2021/01/11 02:10:49;;;;;;;14.67;7.53;;;2.20;32.40;;;;;;5073854;28;20672;-67
2021/01/11 02:13:20;;;;;;;12.40;7.43;;;2.50;76.20;;;;;;5075163;28;20160;-68
2021/01/11 02:15:52;;;;;;;11.30;7.18;;;2.40;51.00;;;;;;5075077;28;20163;-68
2021/01/11 02:18:35;;;;;;;10.93;6.78;;;2.40;99.90;;;;;;5075027;28;20188;-68
2021/01/11 02:21:39;;;;;;;12.05;7.75;;;2.40;90.90;;;;;;5074942;28;20203;-68
2021/01/11 02:24:41;;;;;;;13.13;7.72;;;2.40;99.90;;;;;;5059355;28;20180;-69
2021/01/11 02:27:16;;;;;;;10.55;6.93;;;2.20;99.90;;;;;;5074885;28;20696;-67
2021/01/11 02:30:09;;;;;;;8.25;6.32;;;2.30;99.90;;;;;;5074832;28;20184;-68
2021/01/11 02:32:43;;;;;;;10.77;7.18;;;2.50;99.90;;;;;;5075043;28;20149;-68
2021/01/11 02:35:10;;;;;;;14.10;7.05;;;2.50;62.90;;;;;;5074760;28;20159;-68
2021/01/11 02:37:38;;;;;;;10.48;6.78;;;2.60;20.70;;;;;;5075253;28;20531;-68
2021/01/11 02:40:06;;;;;;;14.27;7.18;;;2.60;27.10;;;;;;5074757;28;20184;-68
2021/01/11 02:42:31;;;;;;;9.77;6.30;;;2.50;23.40;;;;;;5074799;28;20176;-68
2021/01/11 02:44:57;;;;;;;11.50;6.93;;;2.20;57.90;;;;;;5074542;28;20170;-68
2021/01/11 02:47:31;;;;;;;13.30;6.80;;;2.20;72.90;;;;;;5074589;28;20175;-68
2021/01/11 02:49:58;;;;;;;12.27;6.45;;;2.30;85.90;;;;;;5074573;28;20277;-69
2021/01/11 02:52:33;;;;;;;9.32;6.65;;;2.30;66.00;;;;;;5074451;28;20172;-68
2021/01/11 02:55:18;;;;;;;12.00;7.95;;;2.40;91.70;;;;;;5074393;28;20156;-68
2021/01/11 02:57:55;;;;;;;13.18;8.27;;;2.40;74.80;;;;;;5074653;28;20160;-68
2021/01/11 03:00:22;;;;;;;11.63;6.72;;;2.50;62.30;;;;;;5074312;28;20630;-68
2021/01/11 03:02:49;;;;;;;9.68;6.18;;;2.50;45.60;;;;;;5074237;28;20218;-68
2021/01/11 03:05:16;;;;;;;12.32;7.13;;;2.40;86.00;;;;;;5074544;28;20164;-67
2021/01/11 03:07:55;;;;;;;10.98;7.50;;;2.40;64.20;;;;;;5074467;28;20666;-68
2021/01/11 03:10:20;;;;;;;11.25;6.60;;;2.40;91.00;;;;;;5074269;28;20261;-68
2021/01/11 03:12:46;;;;;;;15.00;7.63;;;2.50;56.20;;;;;;5074092;28;20696;-68
2021/01/11 03:15:12;;;;;;;19.07;7.60;;;2.40;87.10;;;;;;5073964;28;20168;-68
2021/01/11 03:17:38;;;;;;;12.35;6.93;;;2.40;58.70;;;;;;5074710;28;20164;-68
2021/01/11 03:20:04;;;;;;;13.23;8.00;;;2.30;37.70;;;;;;5073431;28;20660;-68
2021/01/11 03:22:29;;;;;;;12.83;6.47;;;2.30;97.00;;;;;;5074129;28;20677;-68
2021/01/11 03:24:55;;;;;;;13.30;8.37;;;2.30;95.70;;;;;;5074067;28;20381;-68
2021/01/11 03:27:20;;;;;;;14.00;7.20;;;2.40;99.90;;;;;;5073715;28;20168;-69
2021/01/11 03:29:46;;;;;;;12.67;7.30;;;2.40;99.90;;;;;;5073621;28;20215;-69
2021/01/11 03:32:11;;;;;;;11.20;7.03;;;2.60;56.10;;;;;;5074232;28;20172;-68
2021/01/11 03:34:37;;;;;;;10.73;6.30;;;2.40;46.80;;;;;;5073911;28;20176;-68
2021/01/11 03:37:03;;;;;;;7.23;6.33;;;2.40;59.40;;;;;;5073559;28;20173;-68
2021/01/11 03:39:28;;;;;;;11.45;7.03;;;2.30;65.40;;;;;;5073685;28;20241;-68
2021/01/11 03:41:54;;;;;;;9.50;6.70;;;2.40;50.30;;;;;;5073448;28;20195;-68
2021/01/11 03:44:19;;;;;;;9.17;5.43;;;2.10;57.90;;;;;;5073471;28;20172;-68
2021/01/11 03:46:45;;;;;;;13.00;6.27;;;2.30;99.90;;;;;;5073388;28;20176;-68
2021/01/11 03:49:10;;;;;;;11.70;7.20;;;2.40;53.90;;;;;;5073302;28;20227;-68
2021/01/11 03:51:36;;;;;;;12.60;7.03;;;2.40;99.50;;;;;;5073295;28;20191;-68
2021/01/11 03:54:02;;;;;;;14.93;7.47;;;2.30;28.10;;;;;;5073190;28;20514;-68
2021/01/11 03:56:27;;;;;;;9.60;6.70;;;2.40;99.90;;;;;;5073149;28;20211;-68
2021/01/11 03:58:53;;;;;;;9.73;6.20;;;2.30;41.00;;;;;;5073317;28;20164;-68
2021/01/11 04:01:19;;;;;;;11.03;6.70;;;2.10;34.50;;;;;;5073077;28;20184;-69
2021/01/11 04:03:44;;;;;;;12.20;7.00;;;2.20;77.50;;;;;;5072950;28;20297;-68
2021/01/11 04:06:10;;;;;;;8.23;6.13;;;2.20;87.60;;;;;;5072996;28;20442;-69
2021/01/11 04:08:36;;;;;;;10.55;6.40;;;2.20;66.80;;;;;;5072987;28;20167;-68
2021/01/11 04:11:01;;;;;;;13.23;6.53;;;2.20;61.40;;;;;;5072992;28;20168;-69
2021/01/11 04:13:27;;;;;;;9.50;6.37;;;2.20;51.80;;;;;;5072938;28;20172;-68
2021/01/11 04:15:53;;;;;;;14.87;6.90;;;2.20;33.70;;;;;;5072951;28;20641;-68
2021/01/11 04:18:18;;;;;;;10.20;6.30;;;2.20;31.60;;;;;;5072864;28;20654;-68
2021/01/11 04:20:44;;;;;;;9.93;6.93;;;2.00;90.00;;;;;;5072725;28;20291;-67
2021/01/11 04:23:09;;;;;;;9.67;6.47;;;2.20;23.10;;;;;;5072754;28;20255;-68
2021/01/11 04:25:35;;;;;;;11.77;5.70;;;1.90;69.70;;;;;;5072764;28;20206;-68
2021/01/11 04:28:03;;;;;;;11.67;5.83;;;2.10;39.80;;;;;;5072769;28;20176;-68
2021/01/11 04:30:29;;;;;;;8.45;6.53;;;2.20;50.60;;;;;;5072643;28;20200;-68
2021/01/11 04:32:54;;;;;;;8.20;5.73;;;2.30;39.20;;;;;;5071936;28;20222;-66
2021/01/11 04:35:22;;;;;;;11.80;6.67;;;2.30;25.30;;;;;;5072725;28;20404;-68
2021/01/11 04:37:47;;;;;;;14.25;6.47;;;2.10;12.80;;;;;;5072870;28;20398;-68
2021/01/11 04:40:13;;;;;;;12.20;5.60;;;2.10;29.50;;;;;;5072480;28;20230;-67
2021/01/11 04:43:17;;;;;;;10.73;7.13;;;2.30;29.10;;;;;;5072542;28;20190;-68
2021/01/11 04:45:43;;;;;;;12.90;7.03;;;2.30;18.10;;;;;;5064160;28;20418;-68
2021/01/11 04:48:11;;;;;;;7.80;5.27;;;2.30;12.40;;;;;;5072904;28;20282;-67
2021/01/11 04:50:37;;;;;;;8.27;5.57;;;2.10;18.50;;;;;;5072571;28;20404;-68
2021/01/11 04:53:10;;;;;;;7.95;5.50;;;2.10;15.20;;;;;;5072679;28;20574;-68
2021/01/11 04:55:37;;;;;;;9.73;6.00;;;2.10;17.20;;;;;;5072262;28;20575;-68
2021/01/11 04:58:07;;;;;;;11.77;5.80;;;2.20;10.10;;;;;;5072429;28;20175;-67
2021/01/11 05:00:32;;;;;;;11.30;6.20;;;2.30;18.60;;;;;;5071740;28;20235;-68
2021/01/11 05:03:09;;;;;;;9.10;5.20;;;2.10;22.10;;;;;;5071945;28;20242;-68
2021/01/11 05:05:45;;;;;;;25.60;7.45;;;2.00;18.20;;;;;;5072100;28;20171;-68
2021/01/11 05:08:11;;;;;;;8.63;5.40;;;2.00;23.00;;;;;;5072374;28;20561;-67
2021/01/11 05:10:40;;;;;;;12.17;6.10;;;1.90;32.70;;;;;;5072462;28;20199;-68
2021/01/11 05:13:08;;;;;;;7.07;4.85;;;1.90;65.60;;;;;;5072301;28;20210;-68
2021/01/11 05:15:35;;;;;;;9.57;5.80;;;1.70;72.10;;;;;;5072714;28;20591;-68
2021/01/11 05:18:01;;;;;;;11.32;6.13;;;1.60;37.90;;;;;;5072516;28;20540;-68
2021/01/11 05:20:33;;;;;;;8.82;5.30;;;1.90;47.20;;;;;;5072355;28;20192;-68
2021/01/11 05:23:08;;;;;;;7.07;5.53;;;2.00;11.90;;;;;;5072140;28;20247;-68
2021/01/11 05:25:36;;;;;;;7.85;5.25;;;1.80;23.90;;;;;;5072210;28;20152;-68
2021/01/11 05:28:15;;;;;;;7.85;5.30;;;2.00;64.00;;;;;;5073368;28;20180;-68
2021/01/11 05:30:47;;;;;;;7.45;5.07;;;2.10;19.50;;;;;;5072111;28;20722;-68
2021/01/11 05:33:17;;;;;;;9.32;5.55;;;1.60;45.00;;;;;;5071976;28;20178;-68
2021/01/11 05:35:44;;;;;;;8.02;6.82;;;1.60;99.90;;;;;;5072009;28;20663;-69
2021/01/11 05:38:18;;;;;;;8.45;5.78;;;1.40;99.90;;;;;;5072314;28;20189;-68
2021/01/11 05:40:45;;;;;;;34.28;8.73;;;1.70;99.90;;;;;;5072153;28;20210;-68
2021/01/11 05:43:21;;;;;;;9.68;5.57;;;1.80;59.20;;;;;;5072538;28;20195;-68
2021/01/11 05:45:49;;;;;;;13.48;7.15;;;1.60;62.20;;;;;;5073995;28;20530;-68
2021/01/11 05:48:16;;;;;;;8.70;5.22;;;1.60;99.90;;;;;;5075272;28;20183;-68
2021/01/11 05:50:49;;;;;;;8.48;5.00;;;1.40;57.80;;;;;;5075522;28;20274;-66
2021/01/11 05:53:26;;;;;;;11.10;5.97;;;1.50;94.70;;;;;;5075253;28;20179;-68
2021/01/11 05:55:53;;;;;;;7.10;4.78;;;1.80;79.20;;;;;;5075279;28;20172;-68
2021/01/11 05:58:20;;;;;;;11.45;5.63;;;2.00;15.50;;;;;;5075114;28;20164;-69
2021/01/11 06:00:45;;;;;;;13.02;7.57;;;1.90;15.90;;;;;;5075350;28;20610;-68
2021/01/11 06:03:12;;;;;;;15.23;5.87;;;1.70;27.20;;;;;;5075337;28;20191;-68
2021/01/11 06:05:38;;;;;;;8.07;5.13;;;1.70;24.30;;;;;;5075293;28;20199;-68
2021/01/11 06:08:06;;;;;;;8.10;5.82;;;1.70;45.40;;;;;;5075072;28;20214;-68
2021/01/11 06:10:32;;;;;;;10.55;5.55;;;1.70;23.90;;;;;;5075331;28;20245;-68
2021/01/11 06:12:58;;;;;;;8.83;5.20;;;1.60;39.30;;;;;;5073967;28;20692;-68
2021/01/11 06:15:28;;;;;;;6.60;4.03;;;1.60;33.90;;;;;;5074909;28;20202;-67
2021/01/11 06:17:58;;;;;;;16.70;5.78;;;1.70;19.00;;;;;;5074882;28;20563;-68
2021/01/11 06:20:26;;;;;;;11.82;5.32;;;1.70;46.80;;;;;;5075055;28;20203;-69
2021/01/11 06:22:52;;;;;;;10.55;5.30;;;1.80;13.00;;;;;;5075166;28;20221;-69
2021/01/11 06:25:17;;;;;;;12.50;5.10;;;1.60;36.30;;;;;;5075061;28;20621;-69
2021/01/11 06:27:56;;;;;;;9.10;5.30;;;1.40;38.10;;;;;;5074835;28;20168;-68
2021/01/11 06:30:37;;;;;;;15.40;6.38;;;1.60;49.80;;;;;;5074586;28;20200;-68
2021/01/11 06:33:28;;;;;;;10.48;5.13;;;1.60;62.70;;;;;;5074797;28;20161;-68
2021/01/11 06:35:54;;;;;;;9.40;5.70;;;1.80;56.70;;;;;;5068773;28;20278;-68
2021/01/11 06:38:30;;;;;;;9.40;5.90;;;2.10;6.60;;;;;;5074722;28;20611;-67
2021/01/11 06:41:01;;;;;;;10.05;5.65;;;2.10;1.00;;;;;;5074682;28;20191;-68
2021/01/11 06:43:49;;;;;;;8.18;5.70;;;2.00;12.10;;;;;;5073321;28;20172;-68
2021/01/11 06:46:29;;;;;;;10.73;5.82;;;2.00;6.20;;;;;;5073855;28;20358;-68
2021/01/11 06:49:03;;;;;;;10.73;5.57;;;2.10;1.00;;;;;;5074242;28;20184;-69
2021/01/11 06:51:43;;;;;;;11.63;5.80;;;2.10;1.00;;;;;;5074427;28;20180;-68
2021/01/11 06:54:12;;;;;;;16.52;7.10;;;1.60;1.00;;;;;;5074643;28;20198;-68
2021/01/11 06:56:40;;;;;;;15.25;7.13;;;1.70;1.00;;;;;;5073406;28;20182;-68
2021/01/11 06:59:13;;;;;;;12.30;6.35;;;1.70;4.80;;;;;;5074114;28;20219;-67
2021/01/11 07:01:40;;;;;;;12.07;6.25;;;1.90;1.00;;;;;;5074381;28;20184;-68
2021/01/11 07:04:07;;;;;;;13.48;7.07;;;1.80;1.00;;;;;;5074234;28;20215;-67
2021/01/11 07:06:40;;;;;;;10.68;6.18;;;1.90;19.00;;;;;;5073991;28;20519;-68
2021/01/11 07:09:19;;;;;;;8.77;5.85;;;1.90;1.00;;;;;;5074054;28;20595;-68
2021/01/11 07:11:47;;;;;;;8.10;4.93;;;2.00;1.00;;;;;;5074261;28;20521;-68
2021/01/11 07:14:20;;;;;;;9.38;5.95;;;2.10;1.00;;;;;;5073949;28;20199;-68
2021/01/11 07:16:54;;;;;;;7.55;5.00;;;2.20;1.00;;;;;;5072401;28;20172;-67
2021/01/11 07:19:43;;;;;;;11.60;6.50;;;2.10;1.00;;;;;;5073783;28;20257;-68
2021/01/11 07:22:12;;;;;;;11.05;5.35;;;2.10;1.00;;;;;;5073531;28;20194;-69
2021/01/11 07:24:41;;;;;;;11.02;6.88;;;1.70;17.10;;;;;;5073591;28;20167;-68
2021/01/11 07:27:08;;;;;;;19.00;6.57;;;1.80;1.00;;;;;;5073560;28;20164;-68
2021/01/11 07:29:34;;;;;;;12.25;6.40;;;1.70;1.00;;;;;;5073501;28;20652;-68
2021/01/11 07:32:00;;;;;;;10.53;6.00;;;1.80;7.20;;;;;;5073383;28;20172;-67
2021/01/11 07:34:26;;;;;;;11.90;5.77;;;2.10;1.00;;;;;;5073998;28;20172;-68
2021/01/11 07:36:54;;;;;;;18.73;5.65;;;1.90;1.00;;;;;;5073477;28;20381;-68
2021/01/11 07:39:26;;;;;;;15.07;7.05;;;1.90;1.00;;;;;;5073410;28;20220;-68
2021/01/11 07:42:00;;;;;;;14.02;7.10;;;2.00;1.00;;;;;;5073395;28;20560;-68
2021/01/11 07:44:37;;;;;;;14.13;6.88;;;1.90;1.00;;;;;;5073660;28;20260;-68
2021/01/11 07:47:05;;;;;;;7.82;5.45;;;2.00;1.00;;;;;;5073780;28;20528;-69
2021/01/11 07:49:34;;;;;;;17.00;5.80;;;1.60;1.00;;;;;;5073022;28;20290;-68
2021/01/11 07:52:04;;;;;;;12.75;5.82;;;1.80;1.00;;;;;;5073978;28;20183;-68
2021/01/11 07:54:29;;;;;;;13.18;6.38;;;2.00;1.00;;;;;;5073427;28;20667;-68
2021/01/11 07:56:56;;;;;;;13.50;5.93;;;2.00;1.00;;;;;;5072999;28;20176;-68
2021/01/11 07:59:22;;;;;;;12.40;5.75;;;2.30;1.00;;;;;;5072767;28;20188;-68
2021/01/11 08:01:48;;;;;;;10.88;6.10;;;2.20;1.00;;;;;;5073692;28;20181;-67
2021/01/11 08:04:15;;;;;;;12.50;5.93;;;2.20;1.00;;;;;;5072915;28;20172;-67
2021/01/11 08:06:56;;;;;;;16.52;6.05;;;2.20;1.00;;;;;;5071992;28;20176;-68
2021/01/11 08:09:29;;;;;;;15.18;6.53;;;2.30;1.00;;;;;;5073078;28;20282;-68
2021/01/11 08:12:16;;;;;;;18.95;5.70;;;2.20;1.00;;;;;;5073013;28;20175;-68
2021/01/11 08:14:43;;;;;;;8.77;5.10;;;2.10;1.00;;;;;;5073136;28;20172;-68
2021/01/11 08:17:19;;;;;;;20.73;7.20;;;2.20;1.00;;;;;;5072736;28;20659;-68
2021/01/11 08:19:58;;;;;;;7.95;5.50;;;2.00;1.00;;;;;;5074341;28;20255;-67
2021/01/11 08:22:26;;;;;;;15.35;8.52;;;2.20;1.00;;;;;;5073875;28;20192;-67
2021/01/11 08:24:53;;;;;;;11.00;6.55;;;2.00;1.00;;;;;;5073123;28;20168;-68
2021/01/11 08:27:21;;;;;;;27.80;8.40;;;2.10;1.00;;;;;;5073300;28;20175;-68
2021/01/11 08:29:47;;;;;;;19.27;7.78;;;2.30;1.00;;;;;;5073329;28;20674;-67
2021/01/11 08:32:16;;;;;;;10.65;6.60;;;2.40;1.00;;;;;;5073299;28;20178;-68
2021/01/11 08:34:42;;;;;;;14.55;6.90;;;2.40;1.00;;;;;;5072862;28;20210;-68
2021/01/11 08:37:28;;;;;;;10.27;5.77;;;2.30;1.00;;;;;;5073236;28;20192;-68
2021/01/11 08:40:10;;;;;;;9.38;4.70;;;2.30;1.00;;;;;;5072986;28;20287;-68
2021/01/11 08:42:38;;;;;;;7.85;5.55;;;2.00;1.00;;;;;;5072863;28;20549;-68
2021/01/11 08:45:28;;;;;;;9.75;5.72;;;2.00;1.00;;;;;;5072965;28;20164;-68
2021/01/11 08:48:14;;;;;;;9.20;5.45;;;1.90;1.00;;;;;;5072505;28;20179;-68
2021/01/11 08:51:03;;;;;;;9.10;5.75;;;1.80;1.00;;;;;;5072592;28;20200;-67
2021/01/11 08:53:37;;;;;;;18.17;5.88;;;1.90;1.00;;;;;;5072088;28;20530;-67
2021/01/11 08:56:06;;;;;;;9.90;5.15;;;2.10;1.00;;;;;;5072594;28;20628;-67
2021/01/11 08:58:33;;;;;;;7.50;5.18;;;1.80;1.00;;;;;;5072573;28;20665;-68
2021/01/11 09:01:19;;;;;;;11.27;6.15;;;2.00;1.00;;;;;;5071970;28;20541;-69
2021/01/11 09:03:49;;;;;;;8.13;5.45;;;2.10;1.00;;;;;;5071634;28;20199;-68
2021/01/11 09:06:34;;;;;;;64.65;15.43;;;2.00;1.00;;;;;;5072208;28;20231;-68
2021/01/11 09:09:12;;;;;;;12.55;6.13;;;1.80;1.00;;;;;;5071810;28;20180;-68
2021/01/11 09:11:38;;;;;;;9.23;5.72;;;2.10;1.00;;;;;;5072238;28;20164;-68
2021/01/11 09:14:14;;;;;;;14.57;6.25;;;2.30;1.00;;;;;;5072505;28;20164;-67
2021/01/11 09:16:42;;;;;;;9.18;5.07;;;2.30;1.00;;;;;;5072296;28;20172;-68
2021/01/11 09:19:08;;;;;;;10.32;5.70;;;2.20;1.00;;;;;;5074742;28;20192;-67
2021/01/11 09:21:34;;;;;;;8.40;5.28;;;2.20;1.00;;;;;;5075898;28;20310;-67
2021/01/11 09:24:00;;;;;;;15.98;7.03;;;2.00;1.00;;;;;;5075727;28;20168;-67
2021/01/11 09:26:25;;;;;;;8.40;5.20;;;2.30;1.00;;;;;;5075626;28;20172;-69
2021/01/11 09:28:52;;;;;;;6.90;5.03;;;2.30;1.00;;;;;;5075337;28;20182;-69
2021/01/11 09:31:17;;;;;;;7.93;5.40;;;2.50;1.00;;;;;;5075943;28;20183;-69
2021/01/11 09:33:43;;;;;;;10.20;5.17;;;2.60;1.00;;;;;;5075766;28;20168;-68
2021/01/11 09:36:08;;;;;;;6.53;5.00;;;2.40;1.00;;;;;;5076183;28;20176;-69
2021/01/11 09:38:34;;;;;;;8.47;5.57;;;2.40;1.00;;;;;;5076174;28;20698;-69
2021/01/11 09:41:00;;;;;;;11.50;4.07;;;2.40;1.00;;;;;;5075674;28;20245;-69
2021/01/11 09:43:25;;;;;;;10.13;4.70;;;2.30;1.00;;;;;;5075962;28;20633;-68
2021/01/11 09:45:51;;;;;;;10.17;5.90;;;2.10;1.00;;;;;;5075436;28;20702;-68
2021/01/11 09:48:16;;;;;;;7.13;4.60;;;2.00;1.00;;;;;;5075478;28;20176;-69
2021/01/11 09:50:42;;;;;;;8.27;5.33;;;2.10;1.00;;;;;;5075369;28;20271;-68
2021/01/11 09:53:08;;;;;;;10.80;6.43;;;2.30;1.00;;;;;;5075268;28;20176;-69
2021/01/11 09:55:34;;;;;;;12.80;5.87;;;2.30;1.00;;;;;;5075711;28;20215;-69
2021/01/11 09:58:02;;;;;;;8.93;5.50;;;2.50;1.00;;;;;;5075354;28;20767;-67
2021/01/11 10:00:27;;;;;;;8.80;4.35;;;2.40;1.00;;;;;;5075249;28;20192;-67
2021/01/11 10:02:53;;;;;;;8.07;5.10;;;2.20;1.00;;;;;;5075192;28;20175;-67
2021/01/11 10:05:20;;;;;;;13.60;7.50;;;2.40;1.00;;;;;;5075263;28;20381;-67
2021/01/11 10:07:46;;;;;;;10.60;5.90;;;2.50;1.00;;;;;;5075079;28;20191;-68
2021/01/11 10:10:13;;;;;;;6.32;4.65;;;2.40;1.00;;;;;;5075028;28;20195;-68
2021/01/11 10:12:38;;;;;;;11.80;6.07;;;2.50;1.00;;;;;;5075064;28;20199;-68
2021/01/11 10:15:06;;;;;;;7.63;5.37;;;2.30;1.00;;;;;;5074778;28;20606;-68
2021/01/11 10:17:31;;;;;;;7.78;5.35;;;2.30;1.00;;;;;;5074918;28;20190;-68
2021/01/11 10:19:57;;;;;;;6.90;4.67;;;2.30;1.00;;;;;;5075301;28;20196;-68
2021/01/11 10:22:22;;;;;;;6.83;5.10;;;2.50;1.00;;;;;;5075477;28;20188;-69
2021/01/11 10:24:50;;;;;;;7.73;5.10;;;2.50;1.00;;;;;;5074654;28;20222;-69
2021/01/11 10:27:17;;;;;;;8.98;4.95;;;2.60;1.00;;;;;;5075446;28;20176;-69
2021/01/11 10:29:42;;;;;;;8.77;6.30;;;2.50;1.00;;;;;;5073438;28;20683;-68
2021/01/11 10:32:08;;;;;;;6.60;4.63;;;2.60;1.00;;;;;;5074803;28;20168;-69
2021/01/11 10:34:33;;;;;;;10.20;4.90;;;2.40;1.00;;;;;;5074806;28;20313;-69
2021/01/11 10:36:59;;;;;;;9.00;5.17;;;2.40;1.00;;;;;;5074844;28;20263;-69
2021/01/11 10:39:25;;;;;;;5.40;3.90;;;2.60;1.00;;;;;;5074744;28;20270;-68
2021/01/11 10:41:56;;;;;;;9.30;5.38;;;2.70;1.00;;;;;;5074426;28;20192;-67
2021/01/11 10:44:22;;;;;;;11.93;5.20;;;2.80;1.00;;;;;;5074752;28;20153;-67
2021/01/11 10:46:50;;;;;;;11.02;5.57;;;2.90;1.00;;;;;;5074838;28;20218;-69
2021/01/11 10:49:15;;;;;;;11.75;6.32;;;2.70;1.00;;;;;;5073968;28;20207;-69
2021/01/11 10:51:41;;;;;;;7.03;4.73;;;2.50;1.00;;;;;;5074009;28;20211;-67
2021/01/11 10:54:07;;;;;;;14.43;7.50;;;2.60;1.00;;;;;;5074391;28;20176;-67
2021/01/11 10:56:32;;;;;;;27.30;13.17;;;2.80;1.00;;;;;;5074832;28;20208;-66
2021/01/11 10:58:58;;;;;;;13.00;7.43;;;2.80;1.00;;;;;;5074014;28;20212;-69
2021/01/11 11:01:24;;;;;;;10.27;6.23;;;2.90;1.00;;;;;;5073961;28;20578;-68
2021/01/11 11:03:49;;;;;;;9.00;4.47;;;2.90;1.00;;;;;;5074379;28;20164;-68
2021/01/11 11:06:19;;;;;;;8.70;5.27;;;2.70;1.00;;;;;;5074185;28;20529;-68
2021/01/11 11:08:45;;;;;;;7.75;5.53;;;2.60;1.00;;;;;;5074706;28;20168;-68
2021/01/11 11:11:12;;;;;;;8.93;4.43;;;2.90;1.00;;;;;;5074299;28;20176;-69
2021/01/11 11:13:39;;;;;;;18.75;8.10;;;3.00;1.00;;;;;;5074147;28;20199;-68
2021/01/11 11:16:06;;;;;;;9.82;5.65;;;2.80;1.00;;;;;;5073682;28;20188;-68
2021/01/11 11:18:36;;;;;;;9.57;5.30;;;3.00;1.00;;;;;;5074060;28;20175;-68
2021/01/11 11:21:05;;;;;;;8.77;5.35;;;3.00;1.00;;;;;;5074068;28;20726;-67
2021/01/11 11:23:31;;;;;;;7.30;4.45;;;3.00;1.00;;;;;;5074135;28;20176;-68
2021/01/11 11:25:56;;;;;;;7.73;4.90;;;3.00;1.00;;;;;;5074262;28;20179;-69
2021/01/11 11:28:22;;;;;;;13.33;5.60;;;2.70;1.00;;;;;;5075067;28;20171;-69
2021/01/11 11:30:48;;;;;;;19.63;8.70;;;2.80;1.00;;;;;;5074060;28;20280;-68
2021/01/11 11:33:13;;;;;;;8.37;4.30;;;2.80;1.00;;;;;;5073520;28;20198;-67
2021/01/11 11:35:41;;;;;;;15.90;5.87;;;2.60;1.00;;;;;;5073491;28;20171;-68
2021/01/11 11:38:08;;;;;;;17.02;5.72;;;2.80;1.00;;;;;;5073566;28;20180;-68
2021/01/11 11:40:34;;;;;;;9.50;5.90;;;3.00;1.00;;;;;;5073445;28;20558;-67
2021/01/11 11:43:00;;;;;;;14.47;6.37;;;3.10;1.00;;;;;;5072958;28;20187;-68
2021/01/11 11:45:25;;;;;;;10.50;5.73;;;2.90;1.00;;;;;;5073211;28;20402;-67
2021/01/11 11:47:51;;;;;;;17.20;7.63;;;3.00;1.00;;;;;;5073331;28;20996;-68
2021/01/11 11:50:16;;;;;;;10.67;6.03;;;3.10;1.00;;;;;;5073314;28;20199;-69
2021/01/11 11:52:42;;;;;;;15.00;7.60;;;3.00;1.00;;;;;;5073482;28;20179;-67
2021/01/11 11:55:12;;;;;;;16.33;9.00;;;3.00;1.00;;;;;;5073181;28;20180;-68
2021/01/11 11:57:41;;;;;;;14.52;7.97;;;3.00;1.00;;;;;;5073348;28;20514;-68
2021/01/11 12:00:15;;;;;;;19.80;7.90;;;2.80;1.00;;;;;;5073246;28;20207;-68
2021/01/11 12:02:45;;;;;;;9.15;5.90;;;2.80;1.00;;;;;;5073223;28;20190;-67
2021/01/11 12:05:16;;;;;;;13.95;7.20;;;2.70;1.00;;;;;;5073521;28;20159;-69
2021/01/11 12:07:42;;;;;;;8.23;6.13;;;2.80;1.00;;;;;;5073328;28;20156;-69
2021/01/11 12:10:10;;;;;;;12.55;6.68;;;2.80;1.00;;;;;;5073031;28;20766;-68
2021/01/11 12:12:36;;;;;;;10.60;5.13;;;3.10;1.00;;;;;;5072886;28;20199;-66
2021/01/11 12:15:02;;;;;;;8.37;5.87;;;3.20;1.00;;;;;;5073221;28;20179;-68
2021/01/11 12:17:29;;;;;;;9.60;5.45;;;3.30;1.00;;;;;;5073015;28;20172;-68
2021/01/11 12:19:54;;;;;;;8.40;6.00;;;3.20;1.00;;;;;;5074313;28;20218;-68
2021/01/11 12:22:20;;;;;;;14.40;6.63;;;3.00;1.00;;;;;;5074499;28;20191;-68
2021/01/11 12:24:46;;;;;;;10.00;6.20;;;3.20;1.00;;;;;;5073927;28;20633;-68
2021/01/11 12:27:11;;;;;;;12.00;6.70;;;3.30;1.00;;;;;;5073520;28;20247;-68
2021/01/11 12:29:37;;;;;;;10.23;5.70;;;3.50;1.00;;;;;;5074654;28;20226;-68
2021/01/11 12:32:11;;;;;;;7.60;5.27;;;3.40;1.00;;;;;;5074989;28;20206;-66
2021/01/11 12:34:40;;;;;;;9.38;6.05;;;3.30;1.00;;;;;;5074495;28;20166;-68
2021/01/11 12:37:07;;;;;;;10.55;5.05;;;3.40;1.00;;;;;;5074110;28;20259;-69
2021/01/11 12:39:32;;;;;;;16.85;5.95;;;3.30;1.00;;;;;;5072565;28;20242;-69
2021/01/11 12:41:58;;;;;;;11.73;4.43;;;3.40;1.00;;;;;;5072643;28;20192;-69
2021/01/11 12:44:24;;;;;;;11.53;7.03;;;3.50;1.00;;;;;;5072989;28;20406;-67
2021/01/11 12:46:49;;;;;;;8.13;5.20;;;3.50;1.00;;;;;;5072808;28;20578;-69
2021/01/11 12:49:15;;;;;;;8.27;5.60;;;3.50;1.00;;;;;;5072600;28;20207;-69
2021/01/11 12:51:41;;;;;;;11.30;6.13;;;3.60;1.00;;;;;;5072541;28;20195;-69
2021/01/11 12:54:07;;;;;;;10.52;6.38;;;3.40;1.00;;;;;;5074509;28;20291;-68
2021/01/11 12:56:32;;;;;;;12.73;7.23;;;3.40;1.00;;;;;;5077191;28;20599;-69
2021/01/11 12:58:58;;;;;;;15.93;8.97;;;3.50;1.00;;;;;;5076678;28;20653;-68
2021/01/11 13:01:26;;;;;;;13.27;7.53;;;3.70;1.00;;;;;;5076655;28;20202;-69
2021/01/11 13:03:55;;;;;;;12.82;7.45;;;3.70;1.00;;;;;;5076631;28;20247;-69